sensor_id;sensor_type;location;lat;lon;timestamp;pressure;altitude;pressure_sealevel;temperature;humidity
62926;BME280;55732;52.248;-0.844;2022-11-20T00:00:56;100275.14;;;6.52;88.91
62926;BME280;55732;52.248;-0.844;2022-11-20T00:03:22;100271.96;;;6.49;88.93
62926;BME280;55732;52.248;-0.844;2022-11-20T00:05:48;100267.42;;;6.48;89.08
62926;BME280;55732;52.248;-0.844;2022-11-20T00:08:14;100260.77;;;6.48;88.85
62926;BME280;55732;52.248;-0.844;2022-11-20T00:10:40;100257.61;;;6.46;88.85
62926;BME280;55732;52.248;-0.844;2022-11-20T00:13:07;100258.80;;;6.45;88.81
62926;BME280;55732;52.248;-0.844;2022-11-20T00:15:33;100255.64;;;6.43;88.74
62926;BME280;55732;52.248;-0.844;2022-11-20T00:17:59;100257.19;;;6.40;88.74
62926;BME280;55732;52.248;-0.844;2022-11-20T00:20:25;100246.80;;;6.35;88.86
62926;BME280;55732;52.248;-0.844;2022-11-20T00:22:50;100250.70;;;6.39;88.99
62926;BME280;55732;52.248;-0.844;2022-11-20T00:25:17;100249.99;;;6.39;89.07
62926;BME280;55732;52.248;-0.844;2022-11-20T00:27:42;100249.47;;;6.39;89.05
62926;BME280;55732;52.248;-0.844;2022-11-20T00:30:08;100243.86;;;6.38;88.99
62926;BME280;55732;52.248;-0.844;2022-11-20T00:32:34;100240.35;;;6.37;89.02
62926;BME280;55732;52.248;-0.844;2022-11-20T00:35:00;100235.64;;;6.37;89.11
62926;BME280;55732;52.248;-0.844;2022-11-20T00:37:25;100230.75;;;6.36;88.76
62926;BME280;55732;52.248;-0.844;2022-11-20T00:39:51;100221.80;;;6.34;88.83
62926;BME280;55732;52.248;-0.844;2022-11-20T00:42:16;100218.64;;;6.32;89.21
62926;BME280;55732;52.248;-0.844;2022-11-20T00:44:41;100212.50;;;6.31;88.83
62926;BME280;55732;52.248;-0.844;2022-11-20T00:47:07;100207.06;;;6.29;88.69
62926;BME280;55732;52.248;-0.844;2022-11-20T00:49:32;100203.02;;;6.28;89.02
62926;BME280;55732;52.248;-0.844;2022-11-20T00:51:58;100200.38;;;6.27;88.86
62926;BME280;55732;52.248;-0.844;2022-11-20T00:54:23;100202.83;;;6.26;88.83
62926;BME280;55732;52.248;-0.844;2022-11-20T00:56:49;100202.84;;;6.28;89.10
62926;BME280;55732;52.248;-0.844;2022-11-20T00:59:14;100207.39;;;6.27;88.83
62926;BME280;55732;52.248;-0.844;2022-11-20T01:01:40;100204.23;;;6.27;88.86
62926;BME280;55732;52.248;-0.844;2022-11-20T01:04:05;100207.73;;;6.27;88.95
62926;BME280;55732;52.248;-0.844;2022-11-20T01:06:35;100205.99;;;6.28;88.84
62926;BME280;55732;52.248;-0.844;2022-11-20T01:09:05;100195.51;;;6.28;88.72
62926;BME280;55732;52.248;-0.844;2022-11-20T01:11:35;100191.31;;;6.28;88.60
62926;BME280;55732;52.248;-0.844;2022-11-20T01:14:03;100186.59;;;6.28;88.56
62926;BME280;55732;52.248;-0.844;2022-11-20T01:16:35;100181.69;;;6.27;88.68
62926;BME280;55732;52.248;-0.844;2022-11-20T01:19:03;100181.52;;;6.28;88.70
62926;BME280;55732;52.248;-0.844;2022-11-20T01:21:31;100181.54;;;6.29;88.69
62926;BME280;55732;52.248;-0.844;2022-11-20T01:23:58;100172.63;;;6.30;88.52
62926;BME280;55732;52.248;-0.844;2022-11-20T01:26:25;100164.58;;;6.29;88.46
62926;BME280;55732;52.248;-0.844;2022-11-20T01:28:51;100162.48;;;6.29;88.49
62926;BME280;55732;52.248;-0.844;2022-11-20T01:31:20;100159.14;;;6.27;88.19
62926;BME280;55732;52.248;-0.844;2022-11-20T01:33:47;100155.46;;;6.27;88.32
62926;BME280;55732;52.248;-0.844;2022-11-20T01:36:14;100157.04;;;6.27;88.33
62926;BME280;55732;52.248;-0.844;2022-11-20T01:38:40;100153.73;;;6.29;88.40
62926;BME280;55732;52.248;-0.844;2022-11-20T01:41:06;100154.98;;;6.31;88.46
62926;BME280;55732;52.248;-0.844;2022-11-20T01:43:32;100163.05;;;6.34;88.22
62926;BME280;55732;52.248;-0.844;2022-11-20T01:46:17;100163.95;;;6.35;88.18
62926;BME280;55732;52.248;-0.844;2022-11-20T01:48:49;100159.94;;;6.37;88.24
62926;BME280;55732;52.248;-0.844;2022-11-20T01:51:35;100146.61;;;6.33;88.33
62926;BME280;55732;52.248;-0.844;2022-11-20T01:54:07;100158.91;;;6.41;88.36
62926;BME280;55732;52.248;-0.844;2022-11-20T01:56:38;100154.04;;;6.43;88.61
62926;BME280;55732;52.248;-0.844;2022-11-20T01:59:05;100145.84;;;6.45;88.49
62926;BME280;55732;52.248;-0.844;2022-11-20T02:01:33;100141.30;;;6.46;88.42
62926;BME280;55732;52.248;-0.844;2022-11-20T02:03:59;100141.33;;;6.47;88.66
62926;BME280;55732;52.248;-0.844;2022-11-20T02:06:47;100134.33;;;6.49;88.77
62926;BME280;55732;52.248;-0.844;2022-11-20T02:09:15;100130.83;;;6.50;88.59
62926;BME280;55732;52.248;-0.844;2022-11-20T02:11:40;100126.64;;;6.49;88.50
62926;BME280;55732;52.248;-0.844;2022-11-20T02:14:06;100122.61;;;6.49;88.56
62926;BME280;55732;52.248;-0.844;2022-11-20T02:16:38;100121.55;;;6.50;88.64
62926;BME280;55732;52.248;-0.844;2022-11-20T02:19:09;100118.94;;;6.51;88.63
62926;BME280;55732;52.248;-0.844;2022-11-20T02:21:49;100115.98;;;6.52;88.76
62926;BME280;55732;52.248;-0.844;2022-11-20T02:24:21;100108.48;;;6.55;88.67
62926;BME280;55732;52.248;-0.844;2022-11-20T02:26:53;100102.91;;;6.56;88.61
62926;BME280;55732;52.248;-0.844;2022-11-20T02:32:05;100095.75;;;6.58;88.62
62926;BME280;55732;52.248;-0.844;2022-11-20T02:34:31;100093.83;;;6.58;88.65
62926;BME280;55732;52.248;-0.844;2022-11-20T02:36:57;100093.98;;;6.55;88.78
62926;BME280;55732;52.248;-0.844;2022-11-20T02:39:25;100085.38;;;6.53;88.75
62926;BME280;55732;52.248;-0.844;2022-11-20T02:41:53;100086.06;;;6.51;89.02
62926;BME280;55732;52.248;-0.844;2022-11-20T02:44:19;100081.16;;;6.51;88.93
62926;BME280;55732;52.248;-0.844;2022-11-20T02:46:45;100075.73;;;6.50;88.96
62926;BME280;55732;52.248;-0.844;2022-11-20T02:49:11;100071.37;;;6.48;89.03
62926;BME280;55732;52.248;-0.844;2022-11-20T02:51:36;100062.45;;;6.46;89.07
62926;BME280;55732;52.248;-0.844;2022-11-20T02:54:02;100055.45;;;6.45;89.14
62926;BME280;55732;52.248;-0.844;2022-11-20T02:56:27;100051.23;;;6.44;89.04
62926;BME280;55732;52.248;-0.844;2022-11-20T02:58:53;100044.55;;;6.41;88.97
62926;BME280;55732;52.248;-0.844;2022-11-20T03:01:18;100040.18;;;6.41;89.03
62926;BME280;55732;52.248;-0.844;2022-11-20T03:03:43;100033.01;;;6.41;89.21
62926;BME280;55732;52.248;-0.844;2022-11-20T03:06:09;100027.77;;;6.40;89.23
62926;BME280;55732;52.248;-0.844;2022-11-20T03:08:35;100020.40;;;6.38;89.25
62926;BME280;55732;52.248;-0.844;2022-11-20T03:11:05;100016.73;;;6.37;89.54
62926;BME280;55732;52.248;-0.844;2022-11-20T03:13:31;100013.42;;;6.36;89.64
62926;BME280;55732;52.248;-0.844;2022-11-20T03:15:56;100012.20;;;6.37;89.63
62926;BME280;55732;52.248;-0.844;2022-11-20T03:18:22;100009.91;;;6.36;89.64
62926;BME280;55732;52.248;-0.844;2022-11-20T03:20:47;100005.88;;;6.38;89.72
62926;BME280;55732;52.248;-0.844;2022-11-20T03:23:12;99997.15;;;6.38;89.82
62926;BME280;55732;52.248;-0.844;2022-11-20T03:25:38;99989.80;;;6.36;89.82
62926;BME280;55732;52.248;-0.844;2022-11-20T03:28:03;99983.34;;;6.37;89.98
62926;BME280;55732;52.248;-0.844;2022-11-20T03:30:29;99983.86;;;6.38;89.90
62926;BME280;55732;52.248;-0.844;2022-11-20T03:32:54;99980.37;;;6.36;89.74
62926;BME280;55732;52.248;-0.844;2022-11-20T03:35:20;99976.52;;;6.35;89.93
62926;BME280;55732;52.248;-0.844;2022-11-20T03:37:45;99969.70;;;6.35;89.83
62926;BME280;55732;52.248;-0.844;2022-11-20T03:40:11;99965.50;;;6.35;89.92
62926;BME280;55732;52.248;-0.844;2022-11-20T03:42:37;99964.97;;;6.34;89.82
62926;BME280;55732;52.248;-0.844;2022-11-20T03:45:16;99954.98;;;6.31;90.06
62926;BME280;55732;52.248;-0.844;2022-11-20T03:47:42;99952.88;;;6.31;90.35
62926;BME280;55732;52.248;-0.844;2022-11-20T03:50:09;99945.36;;;6.32;90.42
62926;BME280;55732;52.248;-0.844;2022-11-20T03:52:35;99943.09;;;6.31;90.37
62926;BME280;55732;52.248;-0.844;2022-11-20T03:55:00;99944.31;;;6.30;90.62
62926;BME280;55732;52.248;-0.844;2022-11-20T03:57:26;99939.23;;;6.30;90.42
62926;BME280;55732;52.248;-0.844;2022-11-20T03:59:51;99931.02;;;6.29;90.66
62926;BME280;55732;52.248;-0.844;2022-11-20T04:02:16;99924.71;;;6.29;90.70
62926;BME280;55732;52.248;-0.844;2022-11-20T04:04:42;99926.63;;;6.28;90.82
62926;BME280;55732;52.248;-0.844;2022-11-20T04:07:08;99920.34;;;6.27;90.90
62926;BME280;55732;52.248;-0.844;2022-11-20T04:09:33;99915.42;;;6.26;90.95
62926;BME280;55732;52.248;-0.844;2022-11-20T04:11:58;99913.52;;;6.25;91.08
62926;BME280;55732;52.248;-0.844;2022-11-20T04:14:24;99911.94;;;6.24;91.36
62926;BME280;55732;52.248;-0.844;2022-11-20T04:16:49;99912.64;;;6.24;91.38
62926;BME280;55732;52.248;-0.844;2022-11-20T04:19:16;99907.58;;;6.25;91.61
62926;BME280;55732;52.248;-0.844;2022-11-20T04:21:42;99902.51;;;6.25;91.73
62926;BME280;55732;52.248;-0.844;2022-11-20T04:24:09;99891.84;;;6.25;91.88
62926;BME280;55732;52.248;-0.844;2022-11-20T04:26:36;99885.53;;;6.26;91.88
62926;BME280;55732;52.248;-0.844;2022-11-20T04:29:02;99880.64;;;6.26;91.91
62926;BME280;55732;52.248;-0.844;2022-11-20T04:31:31;99879.96;;;6.25;91.96
62926;BME280;55732;52.248;-0.844;2022-11-20T04:34:04;99876.10;;;6.23;92.16
62926;BME280;55732;52.248;-0.844;2022-11-20T04:36:31;99873.13;;;6.23;92.37
62926;BME280;55732;52.248;-0.844;2022-11-20T04:38:58;99869.27;;;6.22;92.45
62926;BME280;55732;52.248;-0.844;2022-11-20T04:41:30;99866.13;;;6.21;92.55
62926;BME280;55732;52.248;-0.844;2022-11-20T04:43:58;99863.32;;;6.20;92.72
62926;BME280;55732;52.248;-0.844;2022-11-20T04:46:32;99869.25;;;6.19;92.88
62926;BME280;55732;52.248;-0.844;2022-11-20T04:48:59;99864.36;;;6.19;93.12
62926;BME280;55732;52.248;-0.844;2022-11-20T04:51:24;99856.49;;;6.19;93.12
62926;BME280;55732;52.248;-0.844;2022-11-20T04:53:50;99855.46;;;6.21;93.18
62926;BME280;55732;52.248;-0.844;2022-11-20T04:56:16;99855.29;;;6.22;93.26
62926;BME280;55732;52.248;-0.844;2022-11-20T04:58:41;99849.17;;;6.23;93.45
62926;BME280;55732;52.248;-0.844;2022-11-20T05:01:13;99848.84;;;6.24;93.64
62926;BME280;55732;52.248;-0.844;2022-11-20T05:03:40;99844.46;;;6.25;93.79
62926;BME280;55732;52.248;-0.844;2022-11-20T05:06:07;99842.35;;;6.27;93.84
62926;BME280;55732;52.248;-0.844;2022-11-20T05:08:33;99840.44;;;6.28;93.64
62926;BME280;55732;52.248;-0.844;2022-11-20T05:11:04;99836.08;;;6.29;93.90
62926;BME280;55732;52.248;-0.844;2022-11-20T05:13:29;99836.44;;;6.31;93.93
62926;BME280;55732;52.248;-0.844;2022-11-20T05:15:55;99839.96;;;6.34;94.18
62926;BME280;55732;52.248;-0.844;2022-11-20T05:18:21;99833.84;;;6.38;94.12
62926;BME280;55732;52.248;-0.844;2022-11-20T05:20:54;99830.71;;;6.42;94.11
62926;BME280;55732;52.248;-0.844;2022-11-20T05:23:19;99826.19;;;6.45;94.11
62926;BME280;55732;52.248;-0.844;2022-11-20T05:25:45;99821.48;;;6.47;94.11
62926;BME280;55732;52.248;-0.844;2022-11-20T05:28:10;99820.43;;;6.48;94.08
62926;BME280;55732;52.248;-0.844;2022-11-20T05:30:36;99824.78;;;6.49;94.14
62926;BME280;55732;52.248;-0.844;2022-11-20T05:33:01;99827.23;;;6.51;94.24
62926;BME280;55732;52.248;-0.844;2022-11-20T05:35:26;99828.13;;;6.54;94.26
62926;BME280;55732;52.248;-0.844;2022-11-20T05:37:52;99825.70;;;6.57;94.41
62926;BME280;55732;52.248;-0.844;2022-11-20T05:40:17;99823.44;;;6.61;94.39
62926;BME280;55732;52.248;-0.844;2022-11-20T05:42:42;99821.50;;;6.63;94.75
62926;BME280;55732;52.248;-0.844;2022-11-20T05:45:09;99827.63;;;6.66;94.73
62926;BME280;55732;52.248;-0.844;2022-11-20T05:47:34;99826.08;;;6.69;94.60
62926;BME280;55732;52.248;-0.844;2022-11-20T05:50:01;99819.60;;;6.72;94.71
62926;BME280;55732;52.248;-0.844;2022-11-20T05:52:29;99804.55;;;6.70;94.76
62926;BME280;55732;52.248;-0.844;2022-11-20T05:54:55;99808.41;;;6.77;94.65
62926;BME280;55732;52.248;-0.844;2022-11-20T05:57:20;99805.27;;;6.79;94.54
62926;BME280;55732;52.248;-0.844;2022-11-20T05:59:46;99809.66;;;6.81;94.70
62926;BME280;55732;52.248;-0.844;2022-11-20T06:02:11;99809.30;;;6.83;94.70
62926;BME280;55732;52.248;-0.844;2022-11-20T06:04:37;99804.39;;;6.85;94.78
62926;BME280;55732;52.248;-0.844;2022-11-20T06:07:04;99808.08;;;6.87;94.88
62926;BME280;55732;52.248;-0.844;2022-11-20T06:09:29;99808.27;;;6.90;94.86
62926;BME280;55732;52.248;-0.844;2022-11-20T06:11:55;99800.39;;;6.92;94.84
62926;BME280;55732;52.248;-0.844;2022-11-20T06:14:20;99801.09;;;6.95;94.74
62926;BME280;55732;52.248;-0.844;2022-11-20T06:16:45;99792.87;;;6.96;94.95
62926;BME280;55732;52.248;-0.844;2022-11-20T06:19:11;99789.53;;;6.99;94.90
62926;BME280;55732;52.248;-0.844;2022-11-20T06:21:36;99793.39;;;7.02;94.96
62926;BME280;55732;52.248;-0.844;2022-11-20T06:24:01;99785.70;;;7.04;95.01
62926;BME280;55732;52.248;-0.844;2022-11-20T06:26:27;99782.72;;;7.05;95.02
62926;BME280;55732;52.248;-0.844;2022-11-20T06:28:54;99779.91;;;7.07;95.04
62926;BME280;55732;52.248;-0.844;2022-11-20T06:31:23;99773.25;;;7.09;95.02
62926;BME280;55732;52.248;-0.844;2022-11-20T06:33:50;99768.52;;;7.11;95.17
62926;BME280;55732;52.248;-0.844;2022-11-20T06:36:18;99770.63;;;7.13;95.18
62926;BME280;55732;52.248;-0.844;2022-11-20T06:38:45;99764.67;;;7.13;95.05
62926;BME280;55732;52.248;-0.844;2022-11-20T06:41:13;99764.16;;;7.15;95.14
62926;BME280;55732;52.248;-0.844;2022-11-20T06:43:39;99758.91;;;7.17;95.14
62926;BME280;55732;52.248;-0.844;2022-11-20T06:46:04;99757.52;;;7.17;95.09
62926;BME280;55732;52.248;-0.844;2022-11-20T06:48:30;99758.57;;;7.18;95.27
62926;BME280;55732;52.248;-0.844;2022-11-20T06:50:56;99758.91;;;7.19;95.06
62926;BME280;55732;52.248;-0.844;2022-11-20T06:53:22;99758.89;;;7.20;95.32
62926;BME280;55732;52.248;-0.844;2022-11-20T06:55:49;99763.61;;;7.21;95.29
62926;BME280;55732;52.248;-0.844;2022-11-20T06:58:15;99762.04;;;7.21;95.18
62926;BME280;55732;52.248;-0.844;2022-11-20T07:00:41;99766.59;;;7.22;95.08
62926;BME280;55732;52.248;-0.844;2022-11-20T07:03:08;99768.16;;;7.22;95.01
62926;BME280;55732;52.248;-0.844;2022-11-20T07:05:35;99769.04;;;7.21;94.97
62926;BME280;55732;52.248;-0.844;2022-11-20T07:08:01;99763.11;;;7.19;94.88
62926;BME280;55732;52.248;-0.844;2022-11-20T07:10:27;99770.99;;;7.17;94.76
62926;BME280;55732;52.248;-0.844;2022-11-20T07:12:53;99778.17;;;7.14;94.89
62926;BME280;55732;52.248;-0.844;2022-11-20T07:15:20;99779.90;;;7.11;94.79
62926;BME280;55732;52.248;-0.844;2022-11-20T07:17:46;99776.23;;;7.09;94.80
62926;BME280;55732;52.248;-0.844;2022-11-20T07:20:13;99777.48;;;7.06;94.94
62926;BME280;55732;52.248;-0.844;2022-11-20T07:22:38;99780.97;;;7.05;94.97
62926;BME280;55732;52.248;-0.844;2022-11-20T07:25:05;99778.87;;;7.05;94.87
62926;BME280;55732;52.248;-0.844;2022-11-20T07:27:31;99788.14;;;7.04;95.01
62926;BME280;55732;52.248;-0.844;2022-11-20T07:29:56;99786.05;;;7.03;95.02
62926;BME280;55732;52.248;-0.844;2022-11-20T07:32:21;99788.14;;;7.02;94.77
62926;BME280;55732;52.248;-0.844;2022-11-20T07:34:47;99784.46;;;7.01;94.89
62926;BME280;55732;52.248;-0.844;2022-11-20T07:37:13;99787.25;;;7.00;94.89
62926;BME280;55732;52.248;-0.844;2022-11-20T07:39:39;99782.89;;;6.97;94.83
62926;BME280;55732;52.248;-0.844;2022-11-20T07:42:06;99781.85;;;6.95;94.83
62926;BME280;55732;52.248;-0.844;2022-11-20T07:44:31;99783.42;;;6.93;94.76
62926;BME280;55732;52.248;-0.844;2022-11-20T07:46:56;99785.34;;;6.91;94.79
62926;BME280;55732;52.248;-0.844;2022-11-20T07:49:22;99789.35;;;6.89;94.69
62926;BME280;55732;52.248;-0.844;2022-11-20T07:51:50;99798.10;;;6.89;94.81
62926;BME280;55732;52.248;-0.844;2022-11-20T07:54:16;99801.09;;;6.91;94.67
62926;BME280;55732;52.248;-0.844;2022-11-20T07:56:41;99801.80;;;6.93;94.65
62926;BME280;55732;52.248;-0.844;2022-11-20T07:59:06;99807.57;;;6.95;94.72
62926;BME280;55732;52.248;-0.844;2022-11-20T08:01:32;99799.85;;;6.94;94.52
62926;BME280;55732;52.248;-0.844;2022-11-20T08:03:57;99810.36;;;7.01;94.53
62926;BME280;55732;52.248;-0.844;2022-11-20T08:06:22;99813.70;;;7.04;94.61
62926;BME280;55732;52.248;-0.844;2022-11-20T08:08:50;99820.68;;;7.08;94.32
62926;BME280;55732;52.248;-0.844;2022-11-20T08:11:16;99826.13;;;7.13;94.32
62926;BME280;55732;52.248;-0.844;2022-11-20T08:13:59;99827.17;;;7.20;94.12
62926;BME280;55732;52.248;-0.844;2022-11-20T08:16:42;99829.81;;;7.27;94.10
62926;BME280;55732;52.248;-0.844;2022-11-20T08:19:08;99827.18;;;7.36;93.84
62926;BME280;55732;52.248;-0.844;2022-11-20T08:21:34;99832.24;;;7.45;93.71
62926;BME280;55732;52.248;-0.844;2022-11-20T08:23:59;99833.64;;;7.55;93.54
62926;BME280;55732;52.248;-0.844;2022-11-20T08:26:25;99835.55;;;7.68;93.21
62926;BME280;55732;52.248;-0.844;2022-11-20T08:28:58;99840.27;;;7.78;93.13
62926;BME280;55732;52.248;-0.844;2022-11-20T08:31:25;99837.27;;;7.86;92.99
62926;BME280;55732;52.248;-0.844;2022-11-20T08:33:51;99835.31;;;7.93;92.77
62926;BME280;55732;52.248;-0.844;2022-11-20T08:36:17;99839.85;;;8.03;92.46
62926;BME280;55732;52.248;-0.844;2022-11-20T08:38:53;99840.89;;;8.11;92.22
62926;BME280;55732;52.248;-0.844;2022-11-20T08:41:19;99841.20;;;8.18;92.12
62926;BME280;55732;52.248;-0.844;2022-11-20T08:44:01;99838.39;;;8.24;92.00
62926;BME280;55732;52.248;-0.844;2022-11-20T08:46:32;99835.91;;;8.30;91.64
62926;BME280;55732;52.248;-0.844;2022-11-20T08:48:59;99833.64;;;8.34;91.46
62926;BME280;55732;52.248;-0.844;2022-11-20T08:51:24;99829.77;;;8.38;91.50
62926;BME280;55732;52.248;-0.844;2022-11-20T08:53:50;99823.08;;;8.42;91.05
62926;BME280;55732;52.248;-0.844;2022-11-20T08:56:16;99824.30;;;8.46;91.03
62926;BME280;55732;52.248;-0.844;2022-11-20T08:58:42;99821.63;;;8.49;90.93
62926;BME280;55732;52.248;-0.844;2022-11-20T09:01:07;99823.70;;;8.55;90.71
62926;BME280;55732;52.248;-0.844;2022-11-20T09:03:33;99824.38;;;8.62;90.43
62926;BME280;55732;52.248;-0.844;2022-11-20T09:06:00;99824.33;;;8.72;90.30
62926;BME280;55732;52.248;-0.844;2022-11-20T09:08:26;99826.88;;;8.83;90.13
62926;BME280;55732;52.248;-0.844;2022-11-20T09:10:53;99829.41;;;8.97;90.09
62926;BME280;55732;52.248;-0.844;2022-11-20T09:13:20;99833.34;;;9.14;89.60
62926;BME280;55732;52.248;-0.844;2022-11-20T09:15:45;99832.34;;;9.29;89.35
62926;BME280;55732;52.248;-0.844;2022-11-20T09:18:10;99827.27;;;9.48;88.99
62926;BME280;55732;52.248;-0.844;2022-11-20T09:20:36;99831.16;;;9.64;88.54
62926;BME280;55732;52.248;-0.844;2022-11-20T09:23:02;99829.85;;;9.71;88.55
62926;BME280;55732;52.248;-0.844;2022-11-20T09:25:28;99835.64;;;9.72;88.37
62926;BME280;55732;52.248;-0.844;2022-11-20T09:27:58;99837.93;;;9.71;88.27
62926;BME280;55732;52.248;-0.844;2022-11-20T09:30:24;99841.80;;;9.70;87.90
62926;BME280;55732;52.248;-0.844;2022-11-20T09:32:49;99837.25;;;9.69;87.57
62926;BME280;55732;52.248;-0.844;2022-11-20T09:35:15;99837.21;;;9.74;87.55
62926;BME280;55732;52.248;-0.844;2022-11-20T09:37:40;99837.16;;;9.79;87.43
62926;BME280;55732;52.248;-0.844;2022-11-20T09:40:09;99836.89;;;9.88;87.50
62926;BME280;55732;52.248;-0.844;2022-11-20T09:42:53;99832.41;;;9.95;87.07
62926;BME280;55732;52.248;-0.844;2022-11-20T09:45:35;99832.52;;;10.02;86.69
62926;BME280;55732;52.248;-0.844;2022-11-20T09:56:20;99828.45;;;10.23;85.78
62926;BME280;55732;52.248;-0.844;2022-11-20T09:58:52;99828.20;;;10.29;85.75
62926;BME280;55732;52.248;-0.844;2022-11-20T10:01:20;99823.89;;;10.36;85.39
62926;BME280;55732;52.248;-0.844;2022-11-20T10:06:29;99817.08;;;10.60;84.86
62926;BME280;55732;52.248;-0.844;2022-11-20T10:09:14;99815.95;;;10.63;84.18
62926;BME280;55732;52.248;-0.844;2022-11-20T10:12:06;99816.03;;;10.70;84.07
62926;BME280;55732;52.248;-0.844;2022-11-20T10:17:09;99808.48;;;10.70;83.50
62926;BME280;55732;52.248;-0.844;2022-11-20T10:20:02;99811.48;;;10.68;83.11
62926;BME280;55732;52.248;-0.844;2022-11-20T10:22:51;99811.47;;;10.69;82.88
62926;BME280;55732;52.248;-0.844;2022-11-20T10:25:20;99809.34;;;10.70;82.62
62926;BME280;55732;52.248;-0.844;2022-11-20T10:30:19;99812.61;;;10.63;82.38
62926;BME280;55732;52.248;-0.844;2022-11-20T10:32:49;99807.80;;;10.67;82.31
62926;BME280;55732;52.248;-0.844;2022-11-20T10:35:21;99799.04;;;10.76;82.26
62926;BME280;55732;52.248;-0.844;2022-11-20T10:38:02;99797.37;;;10.83;82.19
62926;BME280;55732;52.248;-0.844;2022-11-20T10:43:13;99798.52;;;10.99;81.22
62926;BME280;55732;52.248;-0.844;2022-11-20T10:45:51;99798.46;;;11.13;80.68
62926;BME280;55732;52.248;-0.844;2022-11-20T10:48:23;99795.98;;;11.25;80.61
62926;BME280;55732;52.248;-0.844;2022-11-20T10:50:59;99803.27;;;11.32;80.57
62926;BME280;55732;52.248;-0.844;2022-11-20T10:56:47;99806.30;;;11.41;80.28
62926;BME280;55732;52.248;-0.844;2022-11-20T11:01:51;99811.41;;;11.51;79.40
62926;BME280;55732;52.248;-0.844;2022-11-20T11:04:39;99813.71;;;11.50;78.78
62926;BME280;55732;52.248;-0.844;2022-11-20T11:09:48;99822.65;;;11.33;78.29
62926;BME280;55732;52.248;-0.844;2022-11-20T11:12:14;99819.60;;;11.24;78.24
62926;BME280;55732;52.248;-0.844;2022-11-20T11:14:50;99817.71;;;11.21;78.32
62926;BME280;55732;52.248;-0.844;2022-11-20T11:20:21;99815.13;;;11.19;78.47
62926;BME280;55732;52.248;-0.844;2022-11-20T11:22:50;99812.85;;;11.18;78.36
62926;BME280;55732;52.248;-0.844;2022-11-20T11:25:27;99816.21;;;11.17;78.47
62926;BME280;55732;52.248;-0.844;2022-11-20T11:27:55;99825.38;;;11.16;78.28
62926;BME280;55732;52.248;-0.844;2022-11-20T11:30:23;99829.10;;;11.14;77.84
62926;BME280;55732;52.248;-0.844;2022-11-20T11:32:49;99827.55;;;11.12;77.82
62926;BME280;55732;52.248;-0.844;2022-11-20T11:35:25;99826.65;;;11.13;77.87
62926;BME280;55732;52.248;-0.844;2022-11-20T11:37:52;99833.35;;;11.13;77.65
62926;BME280;55732;52.248;-0.844;2022-11-20T11:40:21;99840.96;;;11.11;77.63
62926;BME280;55732;52.248;-0.844;2022-11-20T11:42:54;99842.28;;;11.06;77.51
62926;BME280;55732;52.248;-0.844;2022-11-20T11:45:21;99843.61;;;11.00;77.53
62926;BME280;55732;52.248;-0.844;2022-11-20T11:47:48;99843.84;;;10.97;77.45
62926;BME280;55732;52.248;-0.844;2022-11-20T11:50:20;99839.98;;;10.95;77.51
62926;BME280;55732;52.248;-0.844;2022-11-20T11:53:08;99845.33;;;10.90;77.23
62926;BME280;55732;52.248;-0.844;2022-11-20T11:55:53;99838.06;;;10.94;77.20
62926;BME280;55732;52.248;-0.844;2022-11-20T11:58:31;99837.02;;;10.93;77.14
62926;BME280;55732;52.248;-0.844;2022-11-20T12:01:03;99834.81;;;10.98;77.05
62926;BME280;55732;52.248;-0.844;2022-11-20T12:03:40;99831.18;;;11.06;77.14
62926;BME280;55732;52.248;-0.844;2022-11-20T12:06:14;99821.37;;;11.14;76.65
62926;BME280;55732;52.248;-0.844;2022-11-20T12:08:55;99814.89;;;11.22;76.59
62926;BME280;55732;52.248;-0.844;2022-11-20T12:16:37;99822.96;;;11.35;75.71
62926;BME280;55732;52.248;-0.844;2022-11-20T12:19:10;99820.27;;;11.37;75.46
62926;BME280;55732;52.248;-0.844;2022-11-20T12:27:24;99804.21;;;11.48;75.53
62926;BME280;55732;52.248;-0.844;2022-11-20T12:38:06;99809.21;;;11.55;74.81
62926;BME280;55732;52.248;-0.844;2022-11-20T12:43:56;99815.50;;;11.58;74.37
62926;BME280;55732;52.248;-0.844;2022-11-20T12:46:46;99822.08;;;11.56;73.97
62926;BME280;55732;52.248;-0.844;2022-11-20T12:55:08;99835.13;;;11.56;73.18
62926;BME280;55732;52.248;-0.844;2022-11-20T13:00:22;99834.00;;;11.49;73.00
62926;BME280;55732;52.248;-0.844;2022-11-20T13:08:03;99839.36;;;11.66;73.23
62926;BME280;55732;52.248;-0.844;2022-11-20T13:10:43;99835.66;;;11.66;72.91
62926;BME280;55732;52.248;-0.844;2022-11-20T13:16:04;99834.53;;;11.69;72.62
62926;BME280;55732;52.248;-0.844;2022-11-20T13:18:37;99834.52;;;11.61;72.32
62926;BME280;55732;52.248;-0.844;2022-11-20T13:21:16;99835.06;;;11.49;72.14
62926;BME280;55732;52.248;-0.844;2022-11-20T13:23:42;99836.59;;;11.43;72.54
62926;BME280;55732;52.248;-0.844;2022-11-20T13:26:34;99827.57;;;11.44;72.59
62926;BME280;55732;52.248;-0.844;2022-11-20T13:29:08;99825.14;;;11.42;72.54
62926;BME280;55732;52.248;-0.844;2022-11-20T13:31:35;99823.83;;;11.36;72.42
62926;BME280;55732;52.248;-0.844;2022-11-20T13:34:06;99825.71;;;11.28;72.56
62926;BME280;55732;52.248;-0.844;2022-11-20T13:36:32;99825.25;;;11.24;72.73
62926;BME280;55732;52.248;-0.844;2022-11-20T13:39:00;99827.80;;;11.19;72.83
62926;BME280;55732;52.248;-0.844;2022-11-20T13:41:35;99829.66;;;11.13;72.84
62926;BME280;55732;52.248;-0.844;2022-11-20T13:46:40;99830.80;;;10.96;72.69
62926;BME280;55732;52.248;-0.844;2022-11-20T13:49:33;99824.39;;;10.89;72.61
62926;BME280;55732;52.248;-0.844;2022-11-20T13:52:21;99825.20;;;10.82;73.05
62926;BME280;55732;52.248;-0.844;2022-11-20T14:00:19;99811.19;;;10.64;73.38
62926;BME280;55732;52.248;-0.844;2022-11-20T14:03:09;99811.81;;;10.57;73.63
62926;BME280;55732;52.248;-0.844;2022-11-20T14:05:47;99809.27;;;10.51;73.71
62926;BME280;55732;52.248;-0.844;2022-11-20T14:08:28;99804.77;;;10.45;73.86
62926;BME280;55732;52.248;-0.844;2022-11-20T14:11:12;99803.22;;;10.41;74.44
62926;BME280;55732;52.248;-0.844;2022-11-20T14:13:39;99799.42;;;10.37;74.54
62926;BME280;55732;52.248;-0.844;2022-11-20T14:16:04;99795.58;;;10.34;74.50
62926;BME280;55732;52.248;-0.844;2022-11-20T14:18:30;99795.98;;;10.30;74.55
62926;BME280;55732;52.248;-0.844;2022-11-20T14:20:55;99792.88;;;10.26;74.82
62926;BME280;55732;52.248;-0.844;2022-11-20T14:23:25;99797.50;;;10.21;74.89